Date,TemperatureHighF,TemperatureAvgF,TemperatureLowF,DewpointHighF,DewpointAvgF,DewpointLowF,HumidityHigh,HumidityAvg,HumidityLow,PressureMaxIn,PressureMinIn,WindSpeedMaxMPH,WindSpeedAvgMPH,GustSpeedMaxMPH,PrecipitationSumIn
2013-1-1,30.2,22.9,19.4,25.7,16.7,13.1,83,77,72,30.09,30.00,2,0,0,0.00
2013-1-2,28.4,17.8,10.4,17.1,12.5,8.1,94,80,58,30.21,30.06,4,1,0,0.00
2013-1-3,32.0,20.3,5.0,23.9,14.8,2.5,92,80,53,30.19,30.08,8,2,0,0.00
2013-1-4,32.0,28.7,26.6,23.6,20.1,17.8,82,70,58,30.18,30.10,13,3,0,0.01
2013-1-5,37.4,37.4,37.4,24.8,24.7,24.4,60,60,59,30.18,30.16,2,0,0,0.01
2013-1-6,35.6,33.6,32.0,30.6,28.0,26.2,88,80,73,30.15,29.98,7,3,0,0.25
2013-1-8,46.4,33.2,23.0,27.8,25.0,20.5,94,74,42,30.29,30.23,4,1,0,0.34
2013-1-9,46.4,38.6,28.4,36.4,30.9,26.1,95,74,60,30.46,30.14,12,3,0,0.04
2013-1-10,44.6,34.1,24.8,32.1,28.0,24.3,98,80,56,30.58,30.20,4,1,0,0.00
2013-1-11,55.4,46.2,39.2,50.7,41.7,27.7,98,85,60,30.18,29.81,7,2,0,0.70
2013-1-12,60.8,51.3,42.8,54.6,48.8,42.3,98,92,73,30.01,29.85,4,2,0,0.00
2013-1-13,62.6,51.7,35.6,58.2,48.3,33.8,97,88,76,30.01,29.71,13,3,0,0.73
2013-1-14,35.6,30.6,28.4,34.0,24.7,19.9,94,79,65,30.43,30.02,9,3,0,0.00
2013-1-15,33.8,29.8,28.4,24.7,22.8,20.9,79,75,63,30.40,30.10,5,1,0,0.00
2013-1-16,35.6,31.7,28.4,26.4,24.3,21.2,87,74,64,30.09,29.86,8,2,0,0.00
2013-1-17,37.4,32.9,26.6,28.8,25.3,17.8,81,74,58,30.25,29.99,11,3,0,0.00
2013-1-18,35.6,28.2,19.4,21.2,17.0,9.9,85,63,49,30.47,30.08,9,3,0,0.00
2013-1-19,51.8,41.9,33.8,30.2,25.2,21.0,61,52,43,30.08,29.70,9,4,0,0.00
2013-1-20,46.4,29.4,19.4,34.3,17.4,10.8,80,61,53,30.15,29.66,23,6,0,0.00
2013-1-21,24.8,19.4,10.4,15.1,10.3,2.3,81,67,51,30.13,29.92,12,4,0,0.00
2013-1-22,14.0,9.2,5.0,5.2,2.0,-2.5,86,72,53,30.26,30.07,9,4,0,0.00
2013-1-23,21.2,12.7,3.2,11.1,5.4,-2.6,89,73,56,30.26,30.05,7,2,0,0.98
2013-1-24,28.4,16.0,5.0,14.2,7.2,-60.3,92,72,41,30.54,30.05,9,2,0,0.00
2013-1-25,26.6,19.9,14.0,17.5,13.9,6.7,89,78,63,30.38,30.01,2,0,0,0.00
2013-1-26,30.2,23.7,19.4,21.6,18.8,17.0,93,82,63,30.30,30.04,6,1,0,0.00
2013-1-27,39.2,32.4,28.4,24.5,20.2,16.8,81,62,42,30.47,30.23,5,2,0,0.00
2013-1-28,46.4,40.3,30.2,46.1,39.0,23.9,99,95,77,30.23,29.91,6,3,0,1.73
2013-1-29,60.8,50.4,37.4,55.4,48.7,37.1,99,94,78,30.03,29.69,5,2,0,1.06
2013-1-30,60.8,54.3,35.6,54.6,49.1,32.1,96,83,71,29.54,29.15,13,5,0,0.66
2013-1-31,33.8,26.5,19.4,30.6,19.0,8.2,89,73,61,29.85,29.28,17,6,0,1.57
2013-2-1,21.2,17.0,14.0,13.3,9.8,7.0,85,73,64,30.28,29.84,14,4,0,0.63
2013-2-2,28.4,20.4,14.0,22.1,15.2,7.0,91,80,71,30.26,29.94,5,1,0,0.00
2013-2-3,32.0,20.6,14.0,19.5,15.4,11.9,95,79,56,29.99,29.84,11,2,0,0.00
2013-2-4,33.8,23.7,17.6,22.9,17.9,13.3,90,79,59,30.02,29.85,5,1,0,0.50
2013-2-5,35.6,27.9,21.2,25.4,21.3,18.9,95,77,56,29.92,29.83,5,1,0,0.01
2013-2-6,41.0,27.9,17.6,26.4,16.9,11.0,94,67,33,30.31,29.92,5,1,0,0.17
2013-2-7,46.4,33.0,17.6,29.0,23.2,13.6,85,68,47,30.28,29.83,6,2,0,0.02
2013-2-8,39.2,31.6,26.6,36.1,27.9,21.9,95,86,76,30.24,29.70,12,5,0,0.26
2013-2-9,35.6,26.7,17.6,22.7,20.2,16.4,95,77,52,30.41,30.24,8,2,0,0.04
2013-2-10,51.8,34.8,19.4,27.6,21.8,17.5,95,62,32,30.30,29.80,6,3,0,0.00
2013-2-11,51.8,40.3,33.8,43.3,32.2,25.1,92,73,58,29.90,29.65,17,6,0,0.00
2013-2-12,37.4,31.8,23.0,27.1,24.8,21.8,96,76,63,30.07,29.90,11,3,0,2.78
2013-2-13,35.6,29.0,23.0,27.4,23.8,19.7,96,81,60,29.91,29.73,5,1,0,1.11
2013-2-14,41.0,31.1,23.0,33.7,27.9,22.0,97,88,73,29.86,29.76,6,2,0,0.00
2013-2-15,35.6,33.7,32.0,27.1,26.0,24.3,75,73,71,30.05,30.00,5,3,0,0.00
2013-2-16,30.2,23.2,17.6,23.3,18.8,15.2,93,84,65,30.03,29.94,4,1,0,0.00
2013-2-17,32.0,19.9,8.6,17.1,12.5,5.7,90,74,44,30.23,29.96,12,2,0,2.22
2013-2-18,44.6,27.2,5.0,32.4,17.0,2.2,90,68,41,30.23,29.71,7,3,0,0.11
2013-2-19,46.4,31.6,19.4,38.6,26.2,10.9,93,81,57,29.95,29.56,15,6,0,0.21
2013-2-20,24.8,20.7,17.6,17.7,13.5,10.7,88,73,59,30.20,29.95,11,5,0,0.00
2013-2-21,28.4,21.7,15.8,18.7,15.4,12.1,90,77,56,30.35,30.19,6,2,0,0.00
2013-2-22,37.4,30.1,19.4,34.2,25.5,14.0,88,83,73,30.27,29.90,8,2,0,0.06
2013-2-23,33.8,32.9,32.0,28.9,27.6,26.5,82,81,80,29.93,29.92,3,3,0,0.00
2013-2-24,32.0,30.0,28.4,24.0,22.4,20.5,76,73,70,30.05,29.88,7,4,0,0.00
2013-2-25,42.8,32.4,19.4,29.5,24.2,18.4,96,73,50,30.21,30.04,7,1,0,0.00
2013-2-26,37.4,33.9,26.6,35.6,29.6,22.1,94,85,64,30.07,29.47,8,3,0,0.82
2013-2-27,42.8,37.3,32.0,38.9,35.2,30.7,98,92,77,29.62,29.47,6,2,0,0.46
2013-2-28,35.6,32.8,32.0,32.7,30.0,28.0,95,89,85,29.87,29.56,9,3,0,1.02
2013-3-1,32.0,29.2,26.6,28.9,25.1,22.1,90,85,78,30.01,29.87,9,4,0,0.00
2013-3-2,33.8,27.9,24.8,25.3,23.5,20.1,91,83,66,30.00,29.95,7,3,0,0.00
2013-3-3,30.2,27.2,23.0,24.3,20.4,16.9,91,76,66,30.00,29.96,8,4,0,0.87
2013-3-4,35.6,26.1,10.4,24.5,18.9,8.3,95,75,55,30.12,30.05,6,1,0,0.19
2013-3-5,42.8,30.4,17.6,31.1,21.4,14.9,94,72,40,30.09,29.66,8,2,0,0.71
2013-3-6,44.6,36.5,28.4,33.2,28.6,25.1,96,74,58,30.17,29.66,8,2,0,0.00
2013-3-7,37.4,33.3,30.2,31.8,30.3,27.4,96,89,74,30.35,30.16,5,2,0,0.00
2013-3-8,37.4,29.0,19.4,29.7,25.3,17.2,96,87,69,30.46,30.35,6,1,0,0.02
2013-3-9,55.4,37.1,21.2,34.4,28.2,20.0,97,74,42,30.42,30.09,5,1,0,0.00
2013-3-10,69.8,56.1,44.6,40.2,35.4,30.3,63,47,30,30.08,29.86,7,3,0,0.00
2013-3-11,57.2,49.2,41.0,48.3,44.0,35.3,95,83,50,29.85,29.55,8,3,0,1.42
2013-3-12,41.0,35.7,32.0,35.3,29.3,25.6,90,77,70,29.97,29.74,10,3,0,0.01
2013-3-13,32.0,31.0,28.4,28.3,23.8,17.6,90,75,58,30.15,29.88,13,4,0,0.15
2013-3-14,35.6,28.9,23.0,24.2,20.9,17.1,85,72,52,30.22,30.09,10,3,0,0.73
2013-3-15,44.6,35.8,28.4,35.4,29.3,21.8,92,77,67,30.09,29.83,10,2,0,0.04
2013-3-16,37.4,32.4,30.2,35.0,30.0,26.0,97,91,84,30.00,29.66,5,2,0,0.29
2013-3-17,32.0,29.8,26.6,27.4,25.1,20.7,89,83,77,30.20,30.00,5,2,0,0.40
2013-3-18,44.6,35.1,26.6,44.1,31.9,20.4,98,88,75,30.15,29.56,11,3,0,0.35
2013-3-19,41.0,32.4,28.4,38.9,24.7,20.5,92,73,62,29.94,29.67,13,5,0,0.00
2013-3-20,32.0,28.7,21.2,24.0,20.2,13.0,87,70,55,29.95,29.87,13,4,0,0.00
2013-3-21,30.2,24.7,17.6,26.5,18.7,11.6,91,78,65,29.90,29.85,10,4,0,0.10
2013-3-22,37.4,29.5,26.6,25.2,22.8,20.2,88,76,57,30.00,29.89,8,3,0,0.02
2013-3-23,42.8,29.6,19.4,32.2,23.6,17.7,95,79,59,30.05,29.98,7,1,0,0.16
2013-3-24,37.4,30.6,23.0,25.7,23.3,20.5,93,75,56,30.01,29.49,7,2,0,0.00
2013-3-25,42.8,33.9,30.2,34.4,30.8,25.1,96,88,70,29.80,29.41,4,1,0,0.42
2013-3-26,41.0,34.8,30.2,32.4,31.1,29.2,98,87,68,30.06,29.80,9,2,0,0.12
2013-3-27,44.6,37.0,32.0,31.7,29.1,26.4,95,75,51,30.16,30.07,11,4,0,0.02
2013-3-28,44.6,39.4,33.8,33.2,30.3,27.1,78,70,60,30.25,30.16,4,1,0,0.00
2013-3-29,50.0,40.3,32.0,31.6,27.5,19.5,85,62,39,30.27,30.21,10,2,0,0.00
2013-3-30,59.0,49.9,35.6,31.4,28.1,24.6,76,44,29,30.23,29.97,5,2,0,0.00
2013-3-31,53.6,46.0,37.4,43.8,35.4,26.0,80,67,46,29.97,29.67,6,2,0,0.02
2013-4-1,46.4,37.2,32.0,39.1,23.2,12.3,89,59,35,30.06,29.66,13,5,0,0.00
2013-4-2,39.2,30.4,23.0,22.7,18.4,14.2,81,62,37,30.18,30.06,10,3,0,0.00
2013-4-3,37.4,32.7,21.2,19.7,16.4,13.7,76,52,41,30.43,30.29,7,3,0,0.00
2013-4-4,59.0,37.3,19.4,21.3,16.7,12.4,85,50,18,30.38,29.95,4,1,0,0.00
2013-4-5,46.4,38.2,28.4,33.3,24.5,16.2,75,58,45,30.21,29.92,9,2,0,0.00
2013-4-6,57.2,41.3,23.0,22.9,18.7,13.5,88,47,21,30.26,29.90,5,2,0,0.91
2013-4-7,73.4,57.0,41.0,46.4,34.7,16.2,77,45,23,30.03,29.76,14,4,0,0.00
2013-4-8,73.4,54.4,33.8,55.2,43.7,31.7,93,70,46,30.04,29.81,8,2,0,0.01
2013-4-9,80.6,63.5,44.6,59.1,49.7,40.1,89,62,45,30.11,29.85,6,2,0,0.00
2013-4-10,73.4,52.8,42.8,62.9,48.3,40.7,98,85,66,29.96,29.80,8,2,0,1.59
2013-4-11,53.6,46.6,41.0,49.2,44.8,40.7,99,93,76,29.91,29.58,6,2,0,0.44
2013-4-12,50.0,43.0,39.2,49.7,39.4,32.7,99,87,70,29.84,29.44,11,2,0,0.43
2013-4-13,42.8,39.3,33.8,38.0,32.7,28.0,88,77,70,30.02,29.83,9,3,0,0.01
2013-4-14,59.0,47.2,30.2,41.7,35.6,28.2,93,67,47,30.10,29.99,5,2,0,0.00
2013-4-15,71.6,61.3,44.6,53.9,48.2,37.8,78,63,49,30.04,29.92,8,3,0,0.00
2013-4-16,69.8,57.1,50.0,59.2,50.8,46.8,97,80,69,30.18,29.94,6,2,0,0.73
2013-4-17,62.6,49.7,46.4,47.9,46.1,45.6,99,90,55,30.29,30.20,6,2,0,0.00
2013-4-18,86.0,73.3,59.0,65.1,58.6,54.0,88,62,38,29.91,29.66,11,4,0,0.00
2013-4-19,69.8,52.1,39.2,59.9,43.7,29.9,91,73,55,29.83,29.37,12,4,0,0.38
2013-4-20,44.6,37.4,30.2,32.6,27.7,23.6,89,68,50,30.41,29.84,11,4,0,0.78
2013-4-21,50.0,37.3,26.6,33.7,28.1,24.1,95,71,44,30.61,30.41,6,2,0,2.28
2013-4-22,68.0,49.6,32.0,41.4,33.9,26.5,85,58,33,30.47,30.21,7,1,0,0.00
2013-4-23,73.4,58.6,42.8,51.3,38.6,28.8,78,49,33,30.22,29.88,5,3,0,0.01
2013-4-24,59.0,45.7,33.8,53.5,42.7,32.5,97,90,67,30.15,29.73,7,3,0,0.98
2013-4-25,53.6,40.8,30.2,43.1,34.6,30.0,99,80,49,30.35,30.16,11,2,0,0.08
2013-4-26,62.6,44.9,30.2,40.2,31.8,26.8,99,66,28,30.48,30.35,5,1,0,0.00
2013-4-27,73.4,53.0,35.6,42.8,36.5,32.1,90,59,25,30.39,30.12,5,1,0,0.00
2013-4-28,57.2,52.1,44.6,54.9,47.3,38.8,92,84,69,30.11,29.87,4,2,0,0.29
2013-4-29,69.8,61.1,51.8,59.3,54.5,49.3,99,80,61,29.99,29.88,7,2,0,0.87
2013-4-30,78.8,62.7,48.2,60.9,53.5,47.9,99,75,45,30.12,29.99,5,1,0,0.13
2013-5-1,82.4,67.3,53.6,61.2,53.7,48.6,86,64,38,30.26,30.11,5,2,0,0.77
2013-5-2,80.6,66.4,53.6,55.8,45.8,39.6,80,49,29,30.31,30.16,7,2,0,1.54
2013-5-3,78.8,66.4,53.6,48.7,42.8,37.4,67,44,24,30.20,30.08,7,2,0,0.77
2013-5-4,73.4,63.3,51.8,46.8,41.3,36.2,68,47,28,30.16,30.05,7,3,0,0.00
2013-5-5,75.2,62.7,51.8,44.8,39.2,30.1,72,46,19,30.10,29.98,7,2,0,0.77
2013-5-6,77.0,62.9,50.0,56.4,45.2,31.2,80,54,37,30.05,29.95,7,2,0,0.77
2013-5-7,77.0,64.6,53.6,59.1,54.1,49.5,87,70,50,30.03,29.95,5,2,0,0.00
2013-5-8,73.4,63.1,51.8,59.1,54.3,50.4,98,75,53,29.99,29.93,5,1,0,0.78
2013-5-9,78.8,65.6,53.6,58.5,51.4,42.5,99,66,29,29.99,29.92,6,1,0,0.02
2013-5-10,75.2,63.6,51.8,64.7,58.1,48.5,99,83,64,29.95,29.75,5,2,0,1.36
2013-5-11,57.2,48.9,44.6,50.7,45.9,40.7,99,90,72,29.89,29.79,14,2,0,0.08
2013-5-12,50.0,42.9,35.6,40.4,32.8,28.8,96,69,45,30.08,29.89,13,4,0,0.00
2013-5-13,51.8,42.1,32.0,33.1,29.4,23.4,92,63,35,30.18,30.06,8,2,0,0.00
2013-5-14,69.8,52.5,32.0,48.7,38.3,27.5,87,61,40,30.15,29.79,6,2,0,0.01
2013-5-15,86.0,68.0,53.6,64.1,52.9,41.3,84,61,32,29.83,29.69,15,3,0,0.00
2013-5-16,82.4,66.4,50.0,54.0,49.3,41.5,98,60,25,29.97,29.76,6,1,0,0.00
2013-5-17,77.0,63.1,48.2,56.9,46.4,-30.6,86,59,36,30.13,29.97,9,2,0,0.00
2013-5-18,82.4,68.4,51.8,61.9,52.2,39.5,78,58,36,30.14,30.01,6,1,0,0.00
2013-5-19,86.0,71.4,59.0,68.6,62.1,53.2,97,74,54,30.06,29.92,4,1,0,0.01
2013-5-20,86.0,73.7,60.8,74.2,66.9,59.9,99,81,58,29.99,29.86,7,2,0,0.00
2013-5-21,87.8,76.2,68.0,72.8,67.0,61.9,97,75,47,29.90,29.78,8,2,0,0.00
2013-5-22,86.0,74.6,64.4,68.4,63.8,59.1,97,71,51,29.83,29.70,7,2,0,0.24
2013-5-23,77.0,59.4,42.8,64.3,56.0,41.7,99,89,64,30.05,29.74,5,2,0,0.49
2013-5-24,46.4,42.6,33.8,42.0,36.7,31.7,97,80,64,30.33,30.05,10,3,0,0.06
2013-5-25,60.8,46.7,30.2,43.3,36.2,29.2,99,71,43,30.37,30.27,6,1,0,0.56
2013-5-26,68.0,49.5,32.0,44.3,36.4,30.2,99,66,34,30.33,30.24,6,1,0,0.00
2013-5-27,60.8,51.1,35.6,52.1,44.6,34.6,97,80,48,30.28,30.04,6,1,0,0.32
2013-5-28,84.2,67.4,51.8,71.6,61.2,50.7,99,83,56,30.04,29.89,5,2,0,0.40
2013-5-29,87.8,76.3,64.4,70.5,65.1,60.4,97,69,50,30.05,29.93,8,2,0,0.00
2013-5-30,89.6,75.9,62.6,72.6,64.7,58.8,96,71,44,30.15,30.04,5,1,0,0.00
2013-5-31,87.8,72.7,62.6,72.8,65.9,60.8,99,82,54,30.07,29.94,10,1,0,2.03
2013-6-1,84.2,72.4,62.6,72.9,67.5,62.3,99,86,68,29.96,29.75,8,2,0,0.27
2013-6-2,77.0,68.7,60.8,64.6,61.6,54.6,99,80,60,29.93,29.75,11,2,0,0.42
2013-6-3,64.4,57.0,44.6,54.6,46.9,39.8,95,70,43,30.10,29.93,6,2,0,0.00
2013-6-4,69.8,55.7,41.0,51.7,44.6,39.9,99,70,41,30.18,30.09,5,1,0,0.00
2013-6-5,77.0,61.2,44.6,58.7,49.8,41.6,97,69,37,30.17,29.94,4,1,0,0.00
2013-6-6,62.6,56.8,53.6,60.5,54.7,18.9,99,91,75,29.94,29.82,4,1,0,1.43
2013-6-7,64.4,56.6,53.6,57.6,54.6,52.5,99,93,77,29.90,29.84,3,1,0,0.02
2013-6-8,71.6,61.3,53.6,60.0,55.3,50.3,99,82,62,30.11,29.89,3,1,0,1.76
2013-6-9,80.6,67.7,51.8,65.4,59.3,50.7,98,77,55,30.15,29.97,6,1,0,0.24
2013-6-10,73.4,67.7,62.6,70.9,65.5,61.1,99,93,84,29.96,29.75,3,0,0,1.96
2013-6-11,80.6,69.2,62.6,68.2,64.4,62.1,99,86,65,29.90,29.77,7,2,0,0.78
2013-6-12,73.4,66.5,62.6,69.5,64.7,62.3,99,94,79,29.92,29.69,3,0,0,0.00
2013-6-13,73.4,65.2,60.8,66.5,60.6,55.9,99,86,62,29.87,29.50,8,3,0,0.60
2013-6-14,71.6,61.4,51.8,62.5,55.7,49.3,99,83,59,30.09,29.87,6,1,0,0.00
2013-6-15,82.4,63.8,46.4,63.3,54.6,45.9,99,77,40,30.13,29.97,4,1,0,0.00
2013-6-16,80.6,70.7,62.6,68.5,64.6,58.4,99,82,60,29.98,29.84,6,2,0,0.57
2013-6-17,86.0,71.2,60.8,71.0,64.1,59.8,99,80,54,29.96,29.88,7,1,0,0.00
2013-6-18,75.2,67.0,59.0,64.7,59.4,52.3,95,77,61,30.03,29.87,8,2,0,0.00
2013-6-19,77.0,57.8,46.4,56.9,49.3,45.3,99,77,44,30.18,30.03,3,1,0,0.00
2013-6-20,86.0,65.3,46.4,61.3,53.0,45.6,99,69,41,30.24,30.17,7,1,0,0.00
2013-6-21,87.8,69.2,53.6,67.9,58.7,-44.7,97,72,45,30.26,30.14,3,0,0,0.00
2013-6-22,89.6,77.2,60.8,76.2,68.1,59.1,96,75,56,30.17,30.03,5,1,0,0.00
2013-6-23,91.4,78.7,64.4,74.5,68.9,63.8,98,74,48,30.13,30.03,5,1,0,0.00
2013-6-24,91.4,77.9,64.4,72.4,67.8,61.4,95,73,49,30.13,29.98,9,1,0,0.00
2013-6-25,89.6,76.2,64.4,76.2,69.0,2.2,99,81,5,30.02,29.85,6,2,0,3.54
2013-6-26,84.2,73.6,64.4,73.3,68.6,64.1,99,86,64,29.93,29.79,5,1,0,0.30
2013-6-27,80.6,72.3,66.2,71.8,68.6,65.6,99,89,64,29.80,29.64,3,0,0,1.53
2013-6-28,80.6,69.2,60.8,70.7,64.0,57.7,99,85,60,29.65,29.50,6,1,0,0.06
2013-6-29,77.0,67.9,60.8,68.9,64.0,59.4,99,88,69,29.70,29.53,3,1,0,0.22
2013-6-30,75.2,67.7,60.8,67.9,63.6,60.5,99,87,74,29.90,29.70,4,1,0,0.01
2013-7-1,75.2,67.4,62.6,68.8,65.0,61.4,99,92,78,29.99,29.87,3,1,0,0.62
2013-7-2,82.4,69.7,60.8,70.7,65.5,60.5,99,88,64,30.07,29.95,3,1,0,0.19
2013-7-3,86.0,73.2,62.6,76.0,68.5,62.3,99,87,62,30.14,30.05,3,0,0,0.00
2013-7-4,80.6,73.7,68.0,73.2,69.5,66.4,99,87,70,30.18,30.12,4,1,0,0.08
2013-7-5,80.6,72.7,68.0,73.8,69.4,67.1,99,90,73,30.15,30.09,5,1,0,0.41
2013-7-6,87.8,74.1,64.4,75.0,70.0,64.1,99,88,66,30.17,30.01,5,1,0,0.02
2013-7-7,80.6,73.7,68.0,71.5,67.9,65.5,98,83,62,30.10,30.00,5,1,0,0.09
2013-7-8,86.0,71.7,62.6,75.5,67.8,62.3,99,89,65,30.11,30.04,6,1,0,0.81
2013-7-9,89.6,75.3,68.0,78.5,71.9,67.7,99,90,66,30.06,29.93,8,1,0,0.91
2013-7-10,89.6,73.5,68.0,79.8,71.3,66.5,99,94,72,29.96,29.79,5,1,0,0.96
2013-7-11,77.0,69.0,59.0,67.7,61.9,56.7,99,80,57,30.04,29.92,6,1,0,0.00
2013-7-12,80.6,67.4,55.4,69.4,62.0,55.1,99,84,57,30.12,30.04,7,1,0,0.17
2013-7-13,87.8,72.8,59.0,71.6,65.4,58.4,99,80,54,30.23,30.11,6,1,0,0.00
2013-7-14,91.4,77.6,64.4,76.3,70.7,64.1,99,81,55,30.27,30.21,4,1,0,0.00
2013-7-15,93.2,79.3,69.8,78.0,72.8,69.5,99,83,55,30.34,30.26,3,0,0,0.17
2013-7-16,91.4,79.7,69.8,79.5,74.1,69.5,99,84,63,30.34,30.26,4,1,0,0.17
2013-7-17,93.2,81.1,71.6,77.6,73.2,71.3,99,79,54,30.31,30.17,5,1,0,0.00
2013-7-18,91.4,81.6,71.6,78.9,74.2,71.3,99,80,57,30.19,30.02,8,1,0,0.01
2013-7-19,93.2,81.8,73.4,79.3,74.5,71.4,99,80,59,30.03,29.82,7,2,0,0.00
2013-7-20,80.6,72.8,68.0,74.6,69.9,66.8,99,91,75,29.92,29.79,4,1,0,0.76
2013-7-21,84.2,73.4,64.4,73.2,68.4,62.3,99,85,61,29.99,29.90,6,1,0,0.13
2013-7-22,78.8,69.5,62.6,73.8,67.5,62.3,99,93,82,29.94,29.77,4,0,0,0.07
2013-7-23,86.0,72.0,60.8,75.9,66.9,60.5,99,85,63,29.80,29.65,6,1,0,0.61
2013-7-24,71.6,64.6,51.8,62.3,55.9,49.8,95,74,61,30.04,29.81,7,2,0,0.00
2013-7-25,78.8,62.6,50.0,60.1,53.3,49.7,99,75,44,30.11,30.04,7,1,0,0.00
2013-7-26,82.4,65.4,50.0,62.9,56.8,18.9,99,76,49,30.11,29.97,4,1,0,0.00
2013-7-27,71.6,65.5,60.8,67.9,62.9,57.8,98,91,79,29.97,29.79,4,1,0,0.24
2013-7-28,68.0,58.7,51.8,61.4,55.6,51.5,99,90,62,30.01,29.85,4,0,0,0.17
2013-7-29,71.6,60.9,51.8,62.1,56.1,51.5,99,86,61,30.19,30.02,5,1,0,0.00
2013-7-30,80.6,65.5,53.6,65.2,59.0,53.3,99,82,52,30.24,30.15,4,0,0,0.00
2013-7-31,80.6,69.2,59.0,69.0,63.5,57.9,99,83,62,30.16,29.92,4,1,0,0.20
2013-8-1,80.6,69.4,60.8,68.8,63.6,58.5,99,83,55,29.92,29.85,6,1,0,0.07
2013-8-2,75.2,65.5,55.4,65.9,60.6,55.1,99,86,61,29.99,29.89,4,1,0,0.83
2013-8-3,80.6,70.1,57.2,67.4,62.1,55.2,99,78,45,30.01,29.91,4,1,0,0.00
2013-8-4,71.6,63.5,55.4,60.5,57.5,53.8,99,83,58,30.14,30.00,5,1,0,1.33
2013-8-5,77.0,63.5,53.6,62.1,57.0,52.2,99,81,52,30.14,30.01,3,0,0,0.25
2013-8-6,80.6,68.0,57.2,66.9,61.5,56.6,99,82,57,30.02,29.94,4,0,0,0.71
2013-8-7,78.8,69.2,60.8,73.5,66.8,59.1,99,92,77,29.98,29.87,3,0,0,0.75
2013-8-8,86.0,73.9,68.0,76.3,69.8,-31.7,99,90,71,29.97,29.92,3,1,0,0.08
2013-8-9,80.6,69.7,59.0,67.7,62.3,52.5,99,79,48,30.02,29.92,5,1,0,0.05
2013-8-10,80.6,67.2,57.2,67.7,60.0,56.7,99,80,59,30.12,30.02,3,1,0,0.00
2013-8-11,82.4,69.7,59.0,64.9,60.7,56.3,98,75,53,30.14,30.04,5,1,0,0.36
2013-8-12,82.4,70.3,59.0,70.8,64.7,58.7,99,84,61,30.08,29.84,5,0,0,0.00
2013-8-13,71.6,65.5,51.8,68.3,59.6,47.6,99,82,58,30.00,29.80,6,2,0,0.36
2013-8-14,69.8,59.4,51.8,56.6,51.9,47.2,96,77,55,30.16,30.00,7,1,0,0.00
2013-8-15,73.4,59.4,46.4,59.1,51.9,46.1,99,79,48,30.20,30.12,4,1,0,0.34
2013-8-16,77.0,62.4,50.0,60.5,54.7,49.7,99,79,47,30.20,30.14,3,0,0,0.34
2013-8-17,80.6,65.5,50.0,64.3,56.7,49.7,99,77,47,30.25,30.18,4,1,0,0.00
2013-8-18,78.8,70.9,62.6,66.9,64.6,62.0,98,81,63,30.16,30.11,3,0,0,0.34
2013-8-19,80.6,68.4,59.0,68.1,61.8,58.6,99,82,50,30.15,30.07,5,1,0,0.00
2013-8-20,86.0,69.8,59.0,68.5,62.5,58.4,99,81,47,30.18,30.10,4,0,0,0.00
2013-8-21,89.6,72.2,59.0,71.0,64.3,58.7,99,80,45,30.19,30.05,4,0,0,0.00
2013-8-22,84.2,73.1,64.4,74.5,68.7,64.1,99,87,67,30.09,29.99,6,1,0,2.03
2013-8-23,84.2,71.5,53.6,70.3,62.2,51.1,99,76,43,30.20,30.02,7,1,0,0.00
2013-8-24,82.4,62.5,51.8,63.6,55.2,51.3,99,81,44,30.32,30.20,5,1,0,0.00
2013-8-25,86.0,71.9,55.4,66.8,61.4,54.8,99,73,48,30.34,30.21,6,1,0,0.00
2013-8-26,87.8,74.9,64.4,70.2,65.0,58.8,88,72,56,30.23,30.01,6,1,0,0.00
2013-8-27,80.6,74.6,69.8,76.0,71.6,67.5,99,91,78,30.05,29.90,5,1,0,1.43
2013-8-28,78.8,73.1,68.0,75.6,71.5,67.4,99,95,85,29.98,29.82,6,1,0,1.36
2013-8-29,87.8,74.6,66.2,75.5,69.7,65.6,99,86,58,30.07,29.97,5,1,0,0.00
2013-8-30,87.8,74.1,62.6,73.3,68.0,62.3,99,83,59,30.03,29.81,6,1,0,0.00
2013-8-31,86.0,74.6,68.0,73.8,70.1,67.4,99,87,64,29.84,29.72,5,1,0,0.01
2013-9-1,82.4,73.9,68.0,74.4,70.8,67.7,99,91,72,29.83,29.75,3,0,0,0.00
2013-9-2,78.8,71.8,62.6,73.2,67.4,60.2,99,87,68,29.86,29.75,4,1,0,0.00
2013-9-3,68.0,61.8,53.6,58.8,56.0,52.8,99,82,71,30.04,29.88,4,1,0,0.00
2013-9-4,78.8,64.2,51.8,63.9,57.5,51.5,99,81,53,30.11,30.03,7,1,0,0.83
2013-9-5,71.6,63.5,48.2,61.1,55.7,47.1,96,77,44,30.25,30.05,6,1,0,0.00
2013-9-6,77.0,58.5,42.8,57.1,49.2,40.9,99,76,31,30.29,30.12,4,0,0,0.00
2013-9-7,82.4,65.4,50.0,71.5,59.9,49.7,99,85,56,30.12,29.92,5,0,0,0.83
2013-9-8,77.0,67.2,53.6,68.3,63.0,51.9,99,87,67,30.07,29.91,6,1,0,0.00
2013-9-9,82.4,66.4,50.0,72.8,63.0,49.7,99,90,68,30.07,29.97,4,0,0,0.00
2013-9-10,96.8,82.3,71.6,77.6,72.8,68.5,95,75,47,30.09,29.98,7,2,0,0.15
2013-9-11,91.4,79.9,71.6,75.9,72.3,69.3,97,79,51,30.12,29.97,5,1,0,0.00
2013-9-12,75.2,68.5,59.0,70.9,66.1,58.7,99,92,65,29.98,29.82,5,1,0,0.65
2013-9-13,60.8,56.4,14.0,58.7,51.7,-69.4,99,86,69,30.08,29.88,6,2,0,0.19
2013-9-14,68.0,54.4,44.6,52.2,46.9,43.4,99,78,55,30.17,30.07,4,1,0,0.00
2013-9-15,69.8,56.6,44.6,58.3,51.8,44.3,99,86,59,30.16,30.04,3,0,0,0.06
2013-9-16,68.0,58.7,46.4,60.5,54.8,45.9,99,88,66,30.33,30.10,6,1,0,0.02
2013-9-17,71.6,54.6,41.0,52.7,46.8,40.7,99,79,38,30.40,30.24,4,1,0,0.00
2013-9-18,77.0,58.8,44.6,63.0,54.0,44.1,99,86,58,30.25,30.06,4,0,0,0.00
2013-9-19,80.6,67.4,55.4,70.6,64.2,55.1,99,90,69,30.10,29.97,4,1,0,0.00
2013-9-20,84.2,72.1,62.6,74.4,68.5,62.3,99,89,69,30.00,29.77,5,2,0,0.55
2013-9-21,69.8,63.5,55.4,67.7,61.7,54.6,99,94,72,29.81,29.66,7,1,0,1.17
2013-9-22,59.0,55.4,51.8,56.4,49.1,45.4,94,80,67,30.04,29.81,5,1,0,0.00
2013-9-23,62.6,53.3,42.8,51.3,47.9,42.5,99,83,57,30.16,30.04,3,0,0,0.94
2013-9-24,71.6,51.2,37.4,56.2,46.0,37.1,99,85,48,30.15,29.97,5,1,0,0.00
2013-9-25,77.0,56.2,42.8,59.6,50.1,42.5,99,83,40,30.00,29.90,3,0,0,0.00
2013-9-26,75.2,56.3,42.8,58.8,48.8,42.5,99,80,35,30.13,29.96,7,1,0,0.00
2013-9-27,78.8,57.7,44.6,59.1,51.5,44.3,99,83,49,30.22,30.12,8,1,0,0.29
2013-9-28,80.6,61.1,48.2,60.9,54.9,47.9,99,83,49,30.23,30.09,5,1,0,0.00
2013-9-29,75.2,61.8,51.8,64.6,58.2,51.5,99,89,67,30.09,29.97,3,1,0,0.00
2013-9-30,71.6,62.5,55.4,64.4,60.8,55.1,99,95,76,30.02,29.95,3,0,0,1.53
2013-10-1,80.6,64.0,53.6,66.4,59.5,53.3,99,87,59,30.07,29.97,6,1,0,0.00
2013-10-2,80.6,67.5,59.0,69.4,63.2,58.7,99,87,68,30.09,30.01,5,1,0,0.00
2013-10-3,80.6,67.9,60.8,73.2,65.0,60.5,99,91,70,30.08,29.98,3,0,0,0.05
2013-10-4,80.6,70.1,64.4,70.6,66.6,63.8,99,90,69,30.06,30.01,6,1,0,0.01
2013-10-5,80.6,68.2,62.6,71.9,67.0,62.3,99,96,73,30.07,29.94,3,0,0,0.38
2013-10-6,78.8,68.9,55.4,70.6,66.2,54.8,99,92,69,29.93,29.67,6,1,0,0.82
2013-10-7,60.8,52.9,44.6,55.1,48.0,43.5,99,84,60,30.12,29.73,7,2,0,0.85
2013-10-8,71.6,54.0,42.8,52.5,47.0,42.5,99,81,40,30.30,30.13,3,0,0,0.32
2013-10-9,71.6,53.5,41.0,51.5,45.7,40.7,99,79,42,30.32,30.21,4,1,0,0.32
2013-10-10,68.0,51.4,37.4,51.7,45.0,37.1,99,82,45,30.23,30.10,4,0,0,0.32
2013-10-11,77.0,55.2,41.0,58.5,48.9,40.7,99,83,42,30.14,30.05,5,1,0,0.00
2013-10-12,78.8,60.5,48.2,65.6,56.4,18.9,99,86,64,30.12,30.06,4,0,0,0.32
2013-10-13,69.8,61.7,53.6,63.3,58.7,51.6,99,90,72,30.30,30.11,5,1,0,0.32
2013-10-14,64.4,53.3,42.8,54.8,48.4,41.9,99,85,61,30.36,30.26,8,1,0,0.32
2013-10-15,64.4,54.2,41.0,60.5,52.7,40.7,99,95,85,30.26,29.92,4,1,0,0.05
2013-10-16,69.8,59.9,44.6,65.7,58.0,44.1,99,94,77,29.92,29.79,6,1,0,0.76
2013-10-17,59.0,48.2,39.2,52.1,46.0,38.9,99,93,67,29.92,29.76,6,1,0,0.22
2013-10-18,64.4,51.7,41.0,50.2,45.5,40.5,99,81,55,29.97,29.87,7,2,0,0.00
2013-10-19,50.0,43.9,37.4,46.0,42.7,37.1,99,96,80,29.91,29.74,5,1,0,0.34
2013-10-20,60.8,47.7,35.6,46.0,40.5,35.3,99,78,50,29.95,29.88,10,2,0,0.81
2013-10-21,66.2,53.4,44.6,49.8,44.0,38.9,99,72,47,29.96,29.81,7,2,0,0.60
2013-10-22,51.8,43.0,33.8,49.2,34.8,30.6,97,74,53,29.96,29.84,8,2,0,0.01
2013-10-23,46.4,38.5,33.8,42.4,34.8,31.5,99,87,63,29.91,29.76,9,2,0,0.21
2013-10-24,44.6,36.7,32.0,35.8,32.6,29.9,99,86,62,30.13,29.90,9,2,0,0.12
2013-10-25,46.4,37.9,32.0,38.2,33.1,29.7,99,85,52,30.32,30.13,8,2,0,0.02
2013-10-26,46.4,39.9,32.0,39.4,31.5,27.1,99,73,58,30.18,29.83,7,3,0,1.20
2013-10-27,51.8,40.1,32.0,39.2,35.3,31.8,99,85,56,30.08,29.96,6,1,0,0.01
2013-10-28,55.4,40.8,30.2,45.0,36.9,30.0,99,87,63,30.33,30.06,4,0,0,0.00
2013-10-29,59.0,41.5,30.2,43.8,36.4,30.0,99,85,48,30.39,30.24,4,0,0,0.00
2013-10-30,68.0,50.1,35.6,53.1,45.0,18.9,99,83,59,30.24,30.01,4,1,0,0.00
2013-10-31,66.2,60.7,55.4,60.2,58.5,52.5,99,93,75,30.01,29.28,10,4,0,0.60
2013-11-1,60.8,51.8,42.8,59.4,47.6,42.3,99,86,72,29.68,29.21,11,3,0,0.31
2013-11-2,50.0,45.0,41.0,46.3,43.2,38.6,99,93,81,30.01,29.65,8,2,0,0.21
2013-11-3,48.2,38.6,28.4,40.5,34.3,27.2,99,86,62,30.45,30.01,8,1,0,0.18
2013-11-4,50.0,37.9,28.4,32.0,28.2,25.6,94,70,42,30.49,30.36,6,2,0,0.00
2013-11-5,59.0,44.8,37.4,46.4,37.7,29.6,81,76,63,30.38,30.25,3,0,0,0.00
2013-11-6,64.4,50.2,42.8,56.1,43.0,35.8,97,77,56,30.25,29.89,11,3,0,0.26
2013-11-7,46.4,41.7,39.2,45.9,35.8,28.6,99,80,60,30.10,29.94,11,4,0,0.30
2013-11-8,42.8,35.8,28.4,34.4,30.2,27.7,99,81,60,30.28,30.08,9,2,0,0.01
2013-11-9,59.0,45.5,28.4,42.1,35.2,28.2,99,70,45,30.23,29.86,9,3,0,0.00
2013-11-10,50.0,43.0,33.8,41.3,32.9,28.6,85,68,56,30.27,29.92,10,4,0,0.00
2013-11-11,46.4,36.6,30.2,39.9,32.8,28.3,99,87,62,30.25,30.01,9,2,0,0.26
2013-11-12,35.6,31.2,28.4,30.1,26.5,21.3,99,83,69,30.47,30.20,6,2,0,0.04
2013-11-13,41.0,32.1,24.8,26.5,22.5,19.7,86,68,52,30.52,30.25,7,2,0,0.19
2013-11-14,50.0,38.1,24.8,26.1,23.1,20.9,88,57,34,30.25,30.06,6,2,0,0.14
2013-11-15,51.8,42.6,32.0,33.3,26.5,22.3,77,54,38,30.12,30.05,5,1,0,0.36
2013-11-16,60.8,55.0,42.8,51.1,48.5,33.3,86,79,67,30.14,29.90,6,3,0,0.19
2013-11-17,62.6,57.7,51.8,58.0,53.8,42.3,99,87,67,29.89,29.39,11,5,0,0.26
2013-11-18,51.8,42.8,35.6,42.7,34.9,27.5,81,74,68,30.09,29.57,19,6,0,0.00
2013-11-19,41.0,33.6,24.8,29.4,26.2,23.0,98,75,62,30.40,30.09,9,2,0,0.00
2013-11-20,46.4,32.8,19.4,28.7,20.3,-58.1,99,67,31,30.42,30.27,5,1,0,0.00
2013-11-21,44.6,40.9,37.4,42.5,33.7,20.0,99,77,49,30.35,30.18,4,2,0,0.08
2013-11-22,50.0,43.0,33.8,49.7,41.8,28.3,99,96,80,30.31,30.11,13,2,0,0.26
2013-11-23,33.8,29.4,21.2,29.2,22.2,8.4,91,75,52,30.40,30.21,12,4,0,0.00
2013-11-24,26.6,22.0,19.4,15.1,11.7,8.4,82,64,56,30.53,30.40,11,4,0,0.00
2013-11-25,33.8,27.1,19.4,23.7,16.9,13.1,83,66,48,30.44,30.13,12,2,0,1.11
2013-11-26,35.6,33.0,32.0,31.8,28.9,24.4,99,85,68,30.14,29.82,6,1,0,0.00
2013-11-27,32.0,28.8,24.8,31.8,23.2,15.8,99,80,64,30.11,29.77,11,4,0,0.00
2013-11-28,35.6,26.0,17.6,23.9,18.5,12.8,84,73,52,30.38,30.12,5,1,0,0.00
2013-11-29,37.4,25.3,14.0,25.7,20.4,12.6,96,83,56,30.62,30.39,5,0,0,0.01
2013-11-30,41.0,31.0,21.2,29.4,24.8,19.2,94,78,59,30.57,30.13,4,1,0,0.09
2013-12-1,42.8,35.9,32.0,34.1,30.2,27.1,94,80,64,30.13,29.94,4,0,0,0.08
2013-12-2,41.0,34.6,30.2,35.3,31.5,28.9,99,89,71,29.94,29.84,4,0,0,0.00
2013-12-3,51.8,39.5,30.2,43.1,36.0,30.0,99,88,67,29.88,29.82,5,0,0,0.00
2013-12-4,59.0,49.6,39.2,51.1,44.9,37.9,98,84,74,29.92,29.73,5,2,0,1.90
2013-12-5,62.6,49.8,32.0,56.3,44.2,29.1,98,81,68,30.09,29.71,11,4,0,0.00
2013-12-6,35.6,31.2,28.4,31.8,29.1,25.9,99,92,78,30.31,30.07,6,1,0,0.65
2013-12-7,28.4,23.7,17.6,27.2,18.8,14.1,95,82,66,30.56,30.31,7,2,0,0.95
2013-12-8,30.2,24.7,15.8,28.7,19.6,13.9,95,81,61,30.56,29.98,6,1,0,0.95
2013-12-9,33.8,31.0,26.6,33.3,27.2,20.4,99,86,72,30.12,29.88,9,3,0,0.00
2013-12-10,30.2,23.6,19.4,20.4,14.7,8.8,80,69,43,30.22,29.95,8,3,0,0.00
2013-12-11,28.4,21.8,17.6,22.7,16.8,11.1,94,81,67,30.38,30.21,8,3,0,1.90
2013-12-12,23.0,16.4,8.6,12.5,6.5,2.7,89,66,44,30.42,30.20,10,3,0,0.00
2013-12-13,33.8,24.8,17.6,20.1,15.2,6.5,83,67,52,30.23,30.15,6,2,0,0.95
2013-12-14,32.0,29.7,24.8,31.8,28.1,20.1,99,93,77,30.21,29.63,3,0,0,0.95
2013-12-15,32.0,23.0,12.2,31.8,21.0,9.8,99,92,84,30.01,29.64,0,0,0,0.00
2013-12-16,28.4,17.4,8.6,21.5,13.3,6.8,94,84,62,30.14,29.96,0,0,0,0.95
2013-12-17,33.8,26.8,21.2,28.2,23.6,19.2,99,88,69,30.01,29.88,0,0,0,0.95
2013-12-18,33.8,27.2,23.0,24.9,21.9,17.2,93,81,66,30.13,29.95,0,0,0,0.95
2013-12-19,50.0,37.5,28.4,35.4,29.3,21.2,83,72,56,30.00,29.92,6,2,0,1.10
2013-12-20,53.6,45.8,41.0,53.3,43.0,34.1,99,91,70,29.93,29.77,6,3,0,0.25
2013-12-21,55.4,53.0,41.0,55.1,52.3,40.7,99,98,96,29.79,29.73,10,3,0,0.86
2013-12-22,62.6,50.7,35.6,56.7,46.9,35.3,99,87,66,29.96,29.47,11,4,0,2.83
2013-12-23,37.4,32.9,28.4,36.1,28.0,20.9,95,82,70,30.29,29.96,9,3,0,0.04
2013-12-24,28.4,20.5,15.8,24.1,15.1,10.7,90,79,69,30.51,30.25,11,3,0,0.00
2013-12-25,30.2,22.3,12.2,23.3,16.1,10.1,93,78,60,30.46,30.13,7,2,0,0.00
2013-12-26,32.0,28.3,19.4,27.9,22.8,15.9,91,80,64,30.30,30.05,10,3,0,0.00
2013-12-27,41.0,34.0,24.8,32.3,27.2,18.9,87,75,67,30.31,30.16,8,2,0,0.04
2013-12-28,53.6,42.1,32.0,37.5,32.1,27.4,84,68,51,30.16,29.96,8,2,0,0.00
2013-12-29,42.8,37.8,28.4,39.1,32.7,27.2,96,82,65,29.96,29.67,8,1,0,0.17
2013-12-30,28.4,22.9,19.4,27.4,19.6,15.1,96,87,69,30.22,29.93,5,2,0,0.00
2013-12-31,23.0,20.0,17.6,20.3,15.1,9.9,91,81,66,30.29,30.02,12,3,0,0.47
2014-1-1,30.2,23.3,19.4,23.9,19.5,17.2,93,85,74,30.30,30.09,2,0,0,0.00
2014-1-2,26.6,19.7,12.2,22.4,17.0,8.8,91,89,84,30.07,29.81,0,0,0,0.00